TimeCST,TemperatureF,Dew PointF,Humidity,Sea Level PressureIn,VisibilityMPH,Wind Direction,Wind SpeedMPH,Gust SpeedMPH,PrecipitationIn,Events,Conditions,WindDirDegrees,DateUTC
12:53 AM,30.9,30.0,96,30.37,10.0,Calm,Calm,-,N/A,,Clear,0,2012-11-16 06:53:00
1:53 AM,30.0,28.0,92,30.36,9.0,Calm,Calm,-,N/A,,Clear,0,2012-11-16 07:53:00
2:53 AM,28.9,28.0,96,30.38,8.0,Calm,Calm,-,N/A,,Clear,0,2012-11-16 08:53:00
3:53 AM,28.0,27.0,96,30.37,9.0,Calm,Calm,-,N/A,,Clear,0,2012-11-16 09:53:00
4:53 AM,28.9,27.0,92,30.39,9.0,Calm,Calm,-,N/A,,Clear,0,2012-11-16 10:53:00
5:53 AM,27.0,26.1,96,30.40,10.0,Calm,Calm,-,N/A,,Clear,0,2012-11-16 11:53:00
6:53 AM,27.0,26.1,96,30.41,10.0,Calm,Calm,-,N/A,,Clear,0,2012-11-16 12:53:00
7:53 AM,28.9,28.9,100,30.44,10.0,Calm,Calm,-,N/A,,Clear,0,2012-11-16 13:53:00
8:53 AM,39.0,34.0,82,30.44,10.0,Calm,Calm,-,N/A,,Clear,0,2012-11-16 14:53:00
9:53 AM,48.9,34.0,56,30.44,10.0,Calm,Calm,-,N/A,,Clear,0,2012-11-16 15:53:00
10:53 AM,53.1,30.0,41,30.43,10.0,Variable,3.5,-,N/A,,Clear,0,2012-11-16 16:53:00
11:53 AM,57.0,30.0,36,30.40,10.0,Calm,Calm,-,N/A,,Clear,0,2012-11-16 17:53:00
12:53 PM,59.0,28.9,32,30.38,10.0,Variable,3.5,-,N/A,,Clear,0,2012-11-16 18:53:00
1:53 PM,60.1,28.0,30,30.36,10.0,Variable,3.5,-,N/A,,Clear,0,2012-11-16 19:53:00
2:53 PM,61.0,28.0,29,30.35,10.0,ESE,5.8,-,N/A,,Clear,120,2012-11-16 20:53:00
3:53 PM,61.0,28.9,30,30.35,10.0,ENE,3.5,-,N/A,,Clear,70,2012-11-16 21:53:00
4:53 PM,55.0,33.1,43,30.36,10.0,Calm,Calm,-,N/A,,Clear,0,2012-11-16 22:53:00
5:53 PM,48.9,33.1,54,30.38,10.0,Calm,Calm,-,N/A,,Clear,0,2012-11-16 23:53:00
6:53 PM,43.0,33.1,68,30.39,10.0,Calm,Calm,-,N/A,,Clear,0,2012-11-17 00:53:00
7:53 PM,41.0,33.1,73,30.40,10.0,Calm,Calm,-,N/A,,Clear,0,2012-11-17 01:53:00
8:53 PM,37.0,33.1,86,30.40,10.0,Calm,Calm,-,N/A,,Clear,0,2012-11-17 02:53:00
9:53 PM,35.1,32.0,89,30.40,10.0,Calm,Calm,-,N/A,,Clear,0,2012-11-17 03:53:00
10:53 PM,33.1,30.9,92,30.40,10.0,Calm,Calm,-,N/A,,Clear,0,2012-11-17 04:53:00
11:53 PM,32.0,30.0,92,30.41,10.0,Calm,Calm,-,N/A,,Clear,0,2012-11-17 05:53:00